createdAt,value
2022-11-08T00:04:25.027Z,3.22
2022-11-08T00:09:48.414Z,5.10
2022-11-08T00:14:51.943Z,4.27
2022-11-08T00:19:55.911Z,4.80
2022-11-08T00:24:59.098Z,5.33
2022-11-08T00:30:02.118Z,4.73
2022-11-08T00:35:06.330Z,4.63
2022-11-08T00:40:10.233Z,4.97
2022-11-08T00:45:14.068Z,4.67
2022-11-08T00:50:16.925Z,4.03
2022-11-08T00:55:20.048Z,3.20
2022-11-08T01:00:23.301Z,3.97
2022-11-08T01:05:26.151Z,4.17
2022-11-08T01:10:29.037Z,3.20
2022-11-08T01:15:40.789Z,3.73
2022-11-08T01:20:46.339Z,3.57
2022-11-08T01:25:49.963Z,4.37
2022-11-08T01:30:52.647Z,3.37
2022-11-08T01:35:55.524Z,4.57
2022-11-08T01:40:58.402Z,3.40
2022-11-08T01:46:13.123Z,3.13
2022-11-08T01:51:21.002Z,2.97
2022-11-08T01:56:24.132Z,4.00
2022-11-08T02:01:27.116Z,3.93
2022-11-08T02:06:32.228Z,3.80
2022-11-08T02:11:36.790Z,3.97
2022-11-08T02:16:39.773Z,4.90
2022-11-08T02:21:58.303Z,4.17
2022-11-08T02:27:02.034Z,3.60
2022-11-08T02:32:06.511Z,3.67
2022-11-08T02:37:10.925Z,3.90
2022-11-08T02:42:19.554Z,4.23
2022-11-08T02:47:24.156Z,3.07
2022-11-08T02:52:27.145Z,4.13
2022-11-08T02:57:30.143Z,3.87
2022-11-08T03:02:33.109Z,3.30
2022-11-08T03:07:36.164Z,3.77
2022-11-08T03:12:40.016Z,3.30
2022-11-08T03:17:42.904Z,4.07
2022-11-08T03:22:46.533Z,4.70
2022-11-08T03:27:49.373Z,4.67
2022-11-08T03:32:53.646Z,5.23
2022-11-08T03:37:57.643Z,4.73
2022-11-08T03:43:00.659Z,4.70
2022-11-08T03:48:04.097Z,4.40
2022-11-08T03:53:07.036Z,3.60
2022-11-08T03:58:09.936Z,4.47
2022-11-08T04:03:12.813Z,4.00
2022-11-08T04:08:15.900Z,3.90
2022-11-08T04:13:37.857Z,4.90
2022-11-08T04:18:59.125Z,4.80
2022-11-08T04:24:02.161Z,3.97
2022-11-08T04:29:05.028Z,2.83
2022-11-08T04:34:08.279Z,3.13
2022-11-08T04:39:11.268Z,3.83
2022-11-08T04:44:15.658Z,3.90
2022-11-08T04:49:18.768Z,4.17
2022-11-08T04:54:21.797Z,3.50
2022-11-08T04:59:24.867Z,4.63
2022-11-08T05:04:27.673Z,5.03
2022-11-08T05:09:30.534Z,4.07
2022-11-08T05:14:33.532Z,4.03
2022-11-08T05:19:54.768Z,4.70
2022-11-08T05:24:57.602Z,5.50
2022-11-08T05:30:00.627Z,7.53
2022-11-08T05:35:03.861Z,8.20
2022-11-08T05:40:07.966Z,8.17
2022-11-08T05:45:10.980Z,5.07
2022-11-08T05:50:19.260Z,6.27
2022-11-08T05:55:22.498Z,7.23
2022-11-08T06:00:25.451Z,7.03
2022-11-08T06:05:28.282Z,8.23
2022-11-08T06:10:31.170Z,7.03
2022-11-08T06:15:35.049Z,6.37
2022-11-08T06:20:37.789Z,6.80
2022-11-08T06:25:43.875Z,7.27
2022-11-08T06:30:49.519Z,7.47
2022-11-08T06:35:52.655Z,6.47
2022-11-08T06:40:59.320Z,5.80
2022-11-08T06:46:02.637Z,6.83
2022-11-08T06:51:05.853Z,6.63
2022-11-08T06:56:10.006Z,7.23
2022-11-08T07:01:13.795Z,7.37
2022-11-08T07:06:16.728Z,7.03
2022-11-08T07:11:19.569Z,7.73
2022-11-08T07:16:22.390Z,8.03
2022-11-08T07:21:25.289Z,7.87
2022-11-08T07:26:28.145Z,8.80
2022-11-08T07:31:30.974Z,8.17
2022-11-08T07:36:33.864Z,8.83
2022-11-08T07:41:36.655Z,9.93
2022-11-08T07:46:39.508Z,6.40
2022-11-08T07:51:42.463Z,7.70
2022-11-08T07:56:45.338Z,8.47
2022-11-08T08:01:48.278Z,7.70
2022-11-08T08:06:51.325Z,5.90
2022-11-08T08:11:54.185Z,7.30
2022-11-08T08:16:57.875Z,7.73
2022-11-08T08:22:00.794Z,9.30
2022-11-08T08:27:03.703Z,8.67
2022-11-08T08:32:06.617Z,9.33
2022-11-08T08:37:10.242Z,7.33
2022-11-08T08:42:13.090Z,8.13
2022-11-08T08:47:16.085Z,8.03
2022-11-08T08:52:19.021Z,7.50
2022-11-08T08:57:21.971Z,7.47
2022-11-08T09:02:24.948Z,7.47
2022-11-08T09:07:27.851Z,8.83
2022-11-08T09:12:31.007Z,7.00
2022-11-08T09:17:34.082Z,8.33
2022-11-08T09:22:38.540Z,9.67
2022-11-08T09:27:41.666Z,9.50
2022-11-08T09:33:00.471Z,8.30
2022-11-08T09:38:04.653Z,9.80
2022-11-08T09:43:40.216Z,8.40
2022-11-08T09:48:45.419Z,8.33
2022-11-08T09:53:58.612Z,9.73
2022-11-08T09:59:20.427Z,10.33
2022-11-08T10:09:59.858Z,9.67
2022-11-08T10:15:30.990Z,11.20
2022-11-08T10:21:10.535Z,10.10
2022-11-08T10:26:27.093Z,10.60
2022-11-08T10:31:35.207Z,11.13
2022-11-08T10:36:47.638Z,12.57
2022-11-08T10:42:17.648Z,11.83
2022-11-08T10:47:29.690Z,12.90
2022-11-08T10:52:46.681Z,10.00
2022-11-08T10:57:49.731Z,11.77
2022-11-08T11:03:15.270Z,10.17
2022-11-08T11:08:19.176Z,10.67
2022-11-08T11:18:49.294Z,12.77
2022-11-08T11:23:58.582Z,11.13
2022-11-08T11:29:04.251Z,11.97
2022-11-08T11:34:19.385Z,12.03
2022-11-08T11:39:46.262Z,10.70
2022-11-08T11:45:15.643Z,9.13
2022-11-08T11:50:28.593Z,10.67
2022-11-08T11:55:43.481Z,11.43
2022-11-08T12:00:59.481Z,11.00
2022-11-08T12:06:12.435Z,11.60
2022-11-08T12:11:49.504Z,10.83
2022-11-08T12:17:32.811Z,11.47
2022-11-08T12:22:59.177Z,13.77
2022-11-08T12:28:08.925Z,10.63
2022-11-08T12:33:42.930Z,10.87
2022-11-08T12:38:59.669Z,11.30
2022-11-08T12:44:14.367Z,11.10
2022-11-08T12:49:44.352Z,9.87
2022-11-08T12:55:09.928Z,13.47
2022-11-08T13:00:20.213Z,14.43
2022-11-08T13:05:31.804Z,15.37
2022-11-08T13:16:14.673Z,14.40
2022-11-08T13:21:34.395Z,18.17
2022-11-08T13:26:42.404Z,18.30
2022-11-08T13:31:51.234Z,13.50
2022-11-08T13:37:43.094Z,14.50
2022-11-08T13:43:07.463Z,12.73
2022-11-08T13:48:36.660Z,14.90
2022-11-08T13:53:58.385Z,15.57
2022-11-08T14:04:30.884Z,18.50
2022-11-08T14:10:01.520Z,18.23
2022-11-08T14:15:22.261Z,19.20
2022-11-08T14:20:46.394Z,18.47
2022-11-08T14:26:23.649Z,21.37
2022-11-08T14:31:32.949Z,16.27
2022-11-08T14:36:35.995Z,16.97
2022-11-08T14:41:39.860Z,13.40
2022-11-08T14:46:42.779Z,13.80
2022-11-08T14:51:46.811Z,12.30
2022-11-08T14:56:50.446Z,14.20
2022-11-08T15:01:53.907Z,11.53
2022-11-08T15:06:59.048Z,13.33
2022-11-08T15:12:23.889Z,11.97
2022-11-08T15:17:34.605Z,9.93
2022-11-08T15:22:37.880Z,10.45
2022-11-08T15:27:56.602Z,11.33
2022-11-08T15:32:59.498Z,11.53
2022-11-08T15:38:06.788Z,12.57
2022-11-08T15:43:44.649Z,16.17
2022-11-08T15:48:59.019Z,11.50
2022-11-08T15:54:01.894Z,13.27
2022-11-08T15:59:05.011Z,12.93
2022-11-08T16:04:13.285Z,15.40
2022-11-08T16:09:16.234Z,15.97
2022-11-08T16:14:22.917Z,17.17
2022-11-08T16:19:25.981Z,18.47
2022-11-08T16:24:28.912Z,17.57
2022-11-08T16:29:34.981Z,17.53
2022-11-08T16:34:37.949Z,21.60
2022-11-08T16:39:40.828Z,19.47
2022-11-08T16:44:44.474Z,18.20
2022-11-08T16:49:51.291Z,26.67
2022-11-08T16:54:54.711Z,16.80
2022-11-08T16:59:57.611Z,16.53
2022-11-08T17:05:00.519Z,16.13
2022-11-08T17:10:03.607Z,16.40
2022-11-08T17:15:13.274Z,15.80
2022-11-08T17:20:19.984Z,18.53
2022-11-08T17:25:24.563Z,29.73
2022-11-08T17:30:27.439Z,23.17
2022-11-08T17:35:30.386Z,21.70
2022-11-08T17:40:33.579Z,20.37
2022-11-08T17:45:36.628Z,19.73
2022-11-08T17:50:39.746Z,16.50
2022-11-08T17:55:42.727Z,16.50
2022-11-08T18:00:45.676Z,16.23
2022-11-08T18:06:00.724Z,14.97
2022-11-08T18:11:04.630Z,16.03
2022-11-08T18:16:15.387Z,16.30
2022-11-08T18:21:19.726Z,16.58
2022-11-08T18:26:22.612Z,15.07
2022-11-08T18:31:26.407Z,16.30
2022-11-08T18:36:30.988Z,15.50
2022-11-08T18:41:34.140Z,14.77
2022-11-08T18:46:41.783Z,14.43
2022-11-08T18:51:51.862Z,16.17
2022-11-08T18:56:54.786Z,18.40
2022-11-08T19:01:57.693Z,18.17
2022-11-08T19:07:00.522Z,19.67
2022-11-08T19:12:06.103Z,16.70
2022-11-08T19:17:09.590Z,15.13
2022-11-08T19:22:12.429Z,13.63
2022-11-08T19:27:15.368Z,13.67
2022-11-08T19:32:18.170Z,14.97
2022-11-08T19:37:20.930Z,15.27
2022-11-08T19:42:24.040Z,13.57
2022-11-08T19:47:27.183Z,11.00
2022-11-08T19:52:30.017Z,13.57
2022-11-08T19:57:35.033Z,13.63
2022-11-08T20:02:38.990Z,16.50
2022-11-08T20:07:45.726Z,14.23
2022-11-08T20:12:48.525Z,12.57
2022-11-08T20:17:51.384Z,14.67
2022-11-08T20:22:54.235Z,14.13
2022-11-08T20:27:56.971Z,16.10
2022-11-08T20:33:00.322Z,16.10
2022-11-08T20:38:03.292Z,16.87
2022-11-08T20:43:06.207Z,13.93
2022-11-08T20:48:09.157Z,15.10
2022-11-08T20:53:11.989Z,13.73
2022-11-08T20:58:14.727Z,13.83
2022-11-08T21:03:19.055Z,14.07
2022-11-08T21:13:46.876Z,13.60
2022-11-08T21:18:49.679Z,13.93
2022-11-08T21:23:54.209Z,14.57
2022-11-08T21:28:56.959Z,14.40
2022-11-08T21:34:00.493Z,14.53
2022-11-08T21:39:03.406Z,13.53
2022-11-08T21:44:06.250Z,13.87
2022-11-08T21:49:13.445Z,14.30
2022-11-08T21:54:16.310Z,16.43
2022-11-08T21:59:19.161Z,15.73
2022-11-08T22:04:22.123Z,14.83
2022-11-08T22:09:24.961Z,12.40
2022-11-08T22:14:27.789Z,13.10
2022-11-08T22:19:30.948Z,14.83
2022-11-08T22:24:33.998Z,15.53
2022-11-08T22:29:36.846Z,13.77
2022-11-08T22:34:40.065Z,13.23
2022-11-08T22:39:42.903Z,13.47
2022-11-08T22:44:45.869Z,14.70
2022-11-08T22:49:48.830Z,12.63
2022-11-08T22:54:51.766Z,11.93
2022-11-08T22:59:54.634Z,12.80
2022-11-08T23:04:57.454Z,13.30
2022-11-08T23:10:00.362Z,14.63
2022-11-08T23:15:22.300Z,14.47
2022-11-08T23:20:43.709Z,15.93
2022-11-08T23:25:46.600Z,11.38
2022-11-08T23:31:07.800Z,12.73
2022-11-08T23:36:15.171Z,12.43
2022-11-08T23:41:36.253Z,12.00
2022-11-08T23:46:39.411Z,11.65
2022-11-08T23:51:42.211Z,11.13
2022-11-08T23:56:45.237Z,11.77
